Time;durP1;ratioP1;P1;durP2;ratioP2;P2;SDS_P1;SDS_P2;PMS_P1;PMS_P2;Temp;Humidity;BMP_temperature;BMP_pressure;BME280_temperature;BME280_humidity;BME280_pressure;Samples;Min_cycle;Max_cycle;Signal;HPM_P1;HPM_P2
2022/11/24 00:01:57;;;;;;;62.00;38.27;;;1.80;99.90;;;;;;4969474;28;20547;-50
2022/11/24 00:04:24;;;;;;;69.97;36.13;;;1.80;99.90;;;;;;4965717;28;20516;-50
2022/11/24 00:06:53;;;;;;;73.73;37.83;;;1.70;99.90;;;;;;4962075;28;20541;-50
2022/11/24 00:09:19;;;;;;;53.43;35.37;;;1.70;99.90;;;;;;4971194;28;20846;-49
2022/11/24 00:11:46;;;;;;;75.77;37.80;;;1.80;99.90;;;;;;4970565;28;20481;-51
2022/11/24 00:14:13;;;;;;;57.73;37.30;;;1.80;99.90;;;;;;4970127;28;20806;-50
2022/11/24 00:16:39;;;;;;;63.27;39.03;;;1.80;99.90;;;;;;4969402;28;20465;-50
2022/11/24 00:19:08;;;;;;;65.53;37.37;;;1.80;99.90;;;;;;4968939;28;20831;-50
2022/11/24 00:21:36;;;;;;;60.53;36.80;;;1.80;99.90;;;;;;4969753;28;20482;-50
2022/11/24 00:24:05;;;;;;;58.07;36.63;;;1.80;99.90;;;;;;4969803;28;20523;-50
2022/11/24 00:26:34;;;;;;;64.90;38.30;;;1.80;99.90;;;;;;4963436;28;20468;-50
2022/11/24 00:29:02;;;;;;;77.53;36.63;;;1.80;99.90;;;;;;4962907;28;20473;-50
2022/11/24 00:31:30;;;;;;;69.57;39.33;;;1.80;99.90;;;;;;4968257;28;20953;-49
2022/11/24 00:33:59;;;;;;;68.33;39.57;;;1.80;99.90;;;;;;4967995;28;20540;-50
2022/11/24 00:36:28;;;;;;;75.83;37.47;;;1.80;99.90;;;;;;4967132;28;20528;-50
2022/11/24 00:38:55;;;;;;;61.30;39.27;;;1.90;99.90;;;;;;4969922;28;20882;-50
2022/11/24 00:41:24;;;;;;;92.90;39.30;;;1.90;99.90;;;;;;4966527;28;20477;-50
2022/11/24 00:43:51;;;;;;;69.67;42.13;;;1.90;99.90;;;;;;4967053;28;20524;-50
2022/11/24 00:46:18;;;;;;;64.30;40.50;;;1.90;99.90;;;;;;4971749;28;20457;-51
2022/11/24 00:48:45;;;;;;;75.37;40.50;;;1.90;99.90;;;;;;4964237;28;20512;-50
2022/11/24 00:51:14;;;;;;;63.70;38.23;;;2.00;99.90;;;;;;4967388;28;20493;-51
2022/11/24 00:53:41;;;;;;;68.17;37.73;;;2.00;99.90;;;;;;4970835;28;20485;-49
2022/11/24 00:56:09;;;;;;;87.50;39.03;;;2.00;99.90;;;;;;4968214;28;20462;-50
2022/11/24 00:58:37;;;;;;;58.57;37.13;;;2.00;99.90;;;;;;4964729;28;20469;-50
2022/11/24 01:01:06;;;;;;;72.67;39.03;;;2.00;99.90;;;;;;4968413;28;20489;-50
2022/11/24 01:03:33;;;;;;;66.60;39.10;;;2.00;99.90;;;;;;4964834;28;20458;-50
2022/11/24 01:06:04;;;;;;;63.10;40.33;;;2.00;99.90;;;;;;4967635;28;20535;-50
2022/11/24 01:08:30;;;;;;;58.23;38.27;;;2.00;99.90;;;;;;4962319;28;20512;-50
2022/11/24 01:11:10;;;;;;;59.63;36.70;;;2.00;99.90;;;;;;4966511;28;20572;-49
2022/11/24 01:13:38;;;;;;;75.87;41.10;;;2.10;99.90;;;;;;4962830;28;20461;-50
2022/11/24 01:16:05;;;;;;;61.30;39.67;;;2.10;99.90;;;;;;4966561;28;20543;-50
2022/11/24 01:18:32;;;;;;;64.90;37.50;;;2.10;99.90;;;;;;4970765;28;20461;-51
2022/11/24 01:20:59;;;;;;;59.83;37.40;;;2.10;99.90;;;;;;4966980;28;20534;-50
2022/11/24 01:23:25;;;;;;;59.90;38.23;;;2.20;99.90;;;;;;4965052;28;20500;-50
2022/11/24 01:25:52;;;;;;;57.87;38.03;;;2.20;99.90;;;;;;4966450;28;20881;-51
2022/11/24 01:28:19;;;;;;;54.43;36.03;;;2.20;99.90;;;;;;4966826;28;20461;-50
2022/11/24 01:30:56;;;;;;;60.00;36.60;;;2.20;99.90;;;;;;4969590;28;20465;-50
2022/11/24 01:33:23;;;;;;;60.63;38.33;;;2.20;99.90;;;;;;4968773;28;20469;-51
2022/11/24 01:35:50;;;;;;;64.40;39.60;;;2.20;99.90;;;;;;4965824;28;20491;-50
2022/11/24 01:38:16;;;;;;;66.30;36.80;;;2.20;99.90;;;;;;4963257;28;20520;-51
2022/11/24 01:40:43;;;;;;;72.47;37.03;;;2.20;99.90;;;;;;4966295;28;20969;-50
2022/11/24 01:43:16;;;;;;;57.93;37.80;;;2.20;99.90;;;;;;4965474;28;20461;-50
2022/11/24 01:45:43;;;;;;;58.53;38.43;;;2.30;99.90;;;;;;4964885;28;20457;-50
2022/11/24 01:48:18;;;;;;;61.60;37.50;;;2.20;99.90;;;;;;4964483;28;20476;-50
2022/11/24 01:50:46;;;;;;;62.37;37.97;;;2.30;99.90;;;;;;4961679;28;20457;-51
2022/11/24 01:53:13;;;;;;;65.73;38.60;;;2.20;99.90;;;;;;4965878;28;20457;-50
2022/11/24 01:55:40;;;;;;;58.97;37.73;;;2.30;99.90;;;;;;4964664;28;20603;-50
2022/11/24 01:58:11;;;;;;;54.37;36.10;;;2.20;99.90;;;;;;4966817;28;20992;-50
2022/11/24 02:00:40;;;;;;;64.53;37.27;;;2.30;99.90;;;;;;4963817;28;20480;-50
2022/11/24 02:03:08;;;;;;;56.77;35.77;;;2.20;99.90;;;;;;4968575;28;20465;-51
2022/11/24 02:05:42;;;;;;;64.83;37.03;;;2.20;99.90;;;;;;4968154;28;20461;-50
2022/11/24 02:08:15;;;;;;;63.33;35.80;;;2.20;99.90;;;;;;4966415;28;21230;-50
2022/11/24 02:10:44;;;;;;;86.73;38.00;;;2.20;99.90;;;;;;4968302;28;20462;-50
2022/11/24 02:13:11;;;;;;;62.40;37.20;;;2.10;99.90;;;;;;4969628;28;20478;-51
2022/11/24 02:15:38;;;;;;;67.90;37.50;;;2.20;99.90;;;;;;4969298;28;20543;-50
2022/11/24 02:18:04;;;;;;;66.33;37.07;;;2.20;99.90;;;;;;4966582;28;20539;-51
2022/11/24 02:20:31;;;;;;;67.90;38.03;;;2.20;99.90;;;;;;4966031;28;20512;-50
2022/11/24 02:23:05;;;;;;;82.10;36.53;;;2.20;99.90;;;;;;4965463;28;20984;-50
2022/11/24 02:25:38;;;;;;;66.93;35.00;;;2.10;99.90;;;;;;4964055;28;20549;-49
2022/11/24 02:28:10;;;;;;;60.80;36.17;;;2.10;99.90;;;;;;4963562;28;20528;-50
2022/11/24 02:30:37;;;;;;;56.80;38.87;;;2.20;99.90;;;;;;4967400;28;20465;-50
2022/11/24 02:33:03;;;;;;;65.27;36.70;;;2.10;99.90;;;;;;4963595;28;21015;-50
2022/11/24 02:35:31;;;;;;;88.73;35.10;;;2.10;99.90;;;;;;4965725;28;20481;-50
2022/11/24 02:37:57;;;;;;;58.73;37.33;;;2.10;99.90;;;;;;4967832;28;20525;-50
2022/11/24 02:40:29;;;;;;;68.57;35.27;;;2.10;99.90;;;;;;4968115;28;20457;-50
2022/11/24 02:42:58;;;;;;;64.37;34.83;;;2.10;99.90;;;;;;4965559;28;20540;-50
2022/11/24 02:45:27;;;;;;;75.93;34.07;;;2.10;99.90;;;;;;4962323;28;20501;-50
2022/11/24 02:47:53;;;;;;;53.53;31.70;;;2.10;99.90;;;;;;4970744;28;20522;-51
2022/11/24 02:50:20;;;;;;;64.13;36.50;;;2.10;99.90;;;;;;4965427;28;20515;-50
2022/11/24 02:52:47;;;;;;;52.73;32.67;;;2.10;99.90;;;;;;4969602;28;20515;-50
2022/11/24 02:55:13;;;;;;;52.77;33.87;;;2.10;99.90;;;;;;4968360;28;20489;-51
2022/11/24 02:57:40;;;;;;;56.27;33.33;;;2.10;99.90;;;;;;4966081;28;20532;-50
2022/11/24 03:00:08;;;;;;;53.10;33.60;;;2.00;99.90;;;;;;4970152;28;20520;-50
2022/11/24 03:02:36;;;;;;;60.30;36.00;;;2.10;99.90;;;;;;4967255;28;20556;-50
2022/11/24 03:05:03;;;;;;;53.07;34.60;;;2.10;99.90;;;;;;4972018;28;20465;-50
2022/11/24 03:07:29;;;;;;;55.07;35.53;;;2.00;99.90;;;;;;4969409;28;20469;-50
2022/11/24 03:09:56;;;;;;;62.30;36.00;;;2.10;99.90;;;;;;4969471;28;20539;-49
2022/11/24 03:12:22;;;;;;;65.37;32.87;;;2.10;99.90;;;;;;4971483;28;20484;-50
2022/11/24 03:14:49;;;;;;;106.07;33.10;;;2.10;99.90;;;;;;4964143;28;20485;-50
2022/11/24 03:17:16;;;;;;;60.57;32.23;;;2.10;99.90;;;;;;4962611;28;20462;-50
2022/11/24 03:19:44;;;;;;;68.13;31.77;;;2.00;99.90;;;;;;4969419;28;20515;-51
2022/11/24 03:22:12;;;;;;;54.40;31.60;;;2.10;99.90;;;;;;4968850;28;20537;-50
2022/11/24 03:24:39;;;;;;;48.57;30.07;;;2.00;99.90;;;;;;4966764;28;20508;-50
2022/11/24 03:27:05;;;;;;;60.70;30.90;;;2.00;99.90;;;;;;4964409;28;20465;-50
2022/11/24 03:29:32;;;;;;;55.30;33.63;;;1.90;99.90;;;;;;4970611;28;20472;-49
2022/11/24 03:31:58;;;;;;;55.83;28.60;;;1.90;99.90;;;;;;4971235;28;20551;-49
2022/11/24 03:34:25;;;;;;;57.97;32.33;;;1.90;99.90;;;;;;4970998;28;20531;-50
2022/11/24 03:36:53;;;;;;;46.00;32.07;;;1.90;99.90;;;;;;4972291;28;20488;-50
2022/11/24 03:39:20;;;;;;;65.27;32.63;;;1.90;99.90;;;;;;4968858;28;21292;-49
2022/11/24 03:41:46;;;;;;;49.80;32.37;;;1.90;99.90;;;;;;4969383;28;20476;-51
2022/11/24 03:44:13;;;;;;;49.70;34.77;;;1.90;99.90;;;;;;4970712;28;20462;-50
2022/11/24 03:46:39;;;;;;;56.43;32.30;;;1.90;99.90;;;;;;4968712;28;20462;-50
2022/11/24 03:52:35;;;;;;;52.70;32.93;;;1.90;99.90;;;;;;4971005;28;20464;-50
2022/11/24 03:55:02;;;;;;;46.77;31.43;;;2.00;99.90;;;;;;4967623;28;20586;-50
2022/11/24 03:57:28;;;;;;;49.70;32.20;;;2.00;99.90;;;;;;4966882;28;20504;-50
2022/11/24 03:59:55;;;;;;;51.30;32.00;;;2.00;99.90;;;;;;4964140;28;20462;-50
2022/11/24 04:02:21;;;;;;;57.53;33.10;;;2.00;99.90;;;;;;4966360;28;20512;-50
2022/11/24 04:04:49;;;;;;;56.27;33.70;;;1.90;99.90;;;;;;4972022;28;20488;-50
2022/11/24 04:07:16;;;;;;;46.70;32.57;;;2.00;99.90;;;;;;4961952;28;20850;-50
2022/11/24 04:09:44;;;;;;;52.57;31.40;;;2.00;99.90;;;;;;4971371;28;20891;-50
2022/11/24 04:14:55;;;;;;;53.50;34.07;;;1.90;99.90;;;;;;4962252;28;20480;-49
2022/11/24 04:17:21;;;;;;;52.40;31.43;;;1.80;99.90;;;;;;4965426;28;20539;-50
2022/11/24 04:19:48;;;;;;;49.90;32.87;;;1.90;99.90;;;;;;4968344;28;20493;-51
2022/11/24 04:22:14;;;;;;;52.37;30.53;;;1.90;99.90;;;;;;4968553;28;21375;-50
2022/11/24 04:24:41;;;;;;;73.03;33.83;;;1.80;99.90;;;;;;4972634;28;20867;-50
2022/11/24 04:27:09;;;;;;;52.20;29.63;;;1.80;99.90;;;;;;4959582;28;20470;-50
2022/11/24 04:29:35;;;;;;;46.27;32.07;;;1.80;99.90;;;;;;4969800;28;20520;-50
2022/11/24 04:32:02;;;;;;;43.37;30.00;;;1.80;99.90;;;;;;4963691;28;20489;-50
2022/11/24 04:34:28;;;;;;;50.07;30.47;;;1.90;99.90;;;;;;4967575;28;20991;-51
2022/11/24 04:36:55;;;;;;;58.43;31.43;;;1.80;99.90;;;;;;4969171;28;20497;-50
2022/11/24 04:39:21;;;;;;;43.90;29.83;;;1.90;99.90;;;;;;4968025;28;20500;-50
2022/11/24 04:41:48;;;;;;;46.63;31.50;;;1.80;99.90;;;;;;4967264;28;20513;-51
2022/11/24 04:44:16;;;;;;;44.33;30.17;;;1.80;99.90;;;;;;4967356;28;20548;-50
2022/11/24 04:46:43;;;;;;;44.60;30.07;;;1.90;99.90;;;;;;4961749;28;20540;-50
2022/11/24 04:49:10;;;;;;;48.73;29.03;;;1.90;99.90;;;;;;4969764;28;20500;-51
2022/11/24 04:51:37;;;;;;;53.80;30.77;;;1.80;99.90;;;;;;4971009;28;20521;-51
2022/11/24 04:54:03;;;;;;;58.17;31.83;;;1.80;99.90;;;;;;4968982;28;20599;-50
2022/11/24 04:56:30;;;;;;;43.67;29.07;;;1.80;99.90;;;;;;4969006;28;20517;-50
2022/11/24 04:58:57;;;;;;;48.73;30.53;;;1.80;99.90;;;;;;4969922;28;21138;-50
2022/11/24 05:01:24;;;;;;;50.50;29.70;;;1.80;99.90;;;;;;4967413;28;21309;-50
2022/11/24 05:03:53;;;;;;;55.37;29.50;;;1.80;99.90;;;;;;4961209;28;21063;-49
2022/11/24 05:06:19;;;;;;;52.73;31.20;;;1.80;99.90;;;;;;4973022;28;20452;-49
2022/11/24 05:08:47;;;;;;;46.40;29.20;;;1.80;99.90;;;;;;4964994;28;20560;-49
2022/11/24 05:11:14;;;;;;;67.37;28.50;;;1.80;99.90;;;;;;4970859;28;20481;-49
2022/11/24 05:13:40;;;;;;;44.50;28.90;;;1.80;99.90;;;;;;4966549;28;20533;-50
2022/11/24 05:16:07;;;;;;;44.10;29.70;;;1.80;99.90;;;;;;4967533;28;20514;-50
2022/11/24 05:18:36;;;;;;;40.53;27.30;;;1.80;99.90;;;;;;4971003;28;20508;-51
2022/11/24 05:21:04;;;;;;;52.90;25.80;;;1.80;99.90;;;;;;4968877;28;20512;-50
2022/11/24 05:23:31;;;;;;;43.93;24.03;;;1.80;99.90;;;;;;4960013;28;20512;-50
2022/11/24 05:25:59;;;;;;;36.00;27.07;;;1.70;99.90;;;;;;4968879;28;20466;-50
2022/11/24 05:28:26;;;;;;;49.07;25.87;;;1.70;99.90;;;;;;4966035;28;20489;-50
2022/11/24 05:30:52;;;;;;;44.03;23.67;;;1.70;99.90;;;;;;4966793;28;20604;-51
2022/11/24 05:33:21;;;;;;;67.20;26.23;;;1.60;99.90;;;;;;4968812;28;20501;-50
2022/11/24 05:35:50;;;;;;;46.63;26.43;;;1.60;99.90;;;;;;4969120;28;20521;-51
2022/11/24 05:38:17;;;;;;;45.00;27.23;;;1.60;99.90;;;;;;4966422;28;20528;-50
2022/11/24 05:40:44;;;;;;;47.80;26.93;;;1.60;99.90;;;;;;4965701;28;20502;-50
2022/11/24 05:43:11;;;;;;;45.37;26.60;;;1.60;99.90;;;;;;4967692;28;20501;-49
2022/11/24 05:45:38;;;;;;;50.57;26.10;;;1.70;99.90;;;;;;4971185;28;20468;-51
2022/11/24 05:48:06;;;;;;;48.33;27.27;;;1.70;99.90;;;;;;4966997;28;20501;-51
2022/11/24 05:50:33;;;;;;;52.03;28.00;;;1.70;99.90;;;;;;4964726;28;20469;-51
2022/11/24 05:53:03;;;;;;;58.03;24.80;;;1.70;99.90;;;;;;4966720;28;20548;-50
2022/11/24 05:55:30;;;;;;;59.43;28.10;;;1.70;99.90;;;;;;4967930;28;20841;-50
2022/11/24 05:57:59;;;;;;;44.70;28.80;;;1.70;99.90;;;;;;4969714;28;20469;-50
2022/11/24 06:00:25;;;;;;;40.97;26.20;;;1.70;99.90;;;;;;4965595;28;20627;-51
2022/11/24 06:02:52;;;;;;;54.20;25.60;;;1.70;99.90;;;;;;4967259;28;20481;-50
2022/11/24 06:05:18;;;;;;;60.00;27.27;;;1.70;99.90;;;;;;4959466;28;20548;-50
2022/11/24 06:07:45;;;;;;;57.83;25.90;;;1.70;99.90;;;;;;4970278;28;20489;-50
2022/11/24 06:10:13;;;;;;;43.20;27.20;;;1.70;99.90;;;;;;4968495;28;20497;-51
2022/11/24 06:12:40;;;;;;;42.50;27.67;;;1.70;99.90;;;;;;4967951;28;20517;-50
2022/11/24 06:15:07;;;;;;;52.33;27.93;;;1.70;99.90;;;;;;4963670;28;20501;-50
2022/11/24 06:17:34;;;;;;;51.73;27.70;;;1.80;99.90;;;;;;4967838;28;20544;-51
2022/11/24 06:20:00;;;;;;;49.07;27.20;;;1.70;99.90;;;;;;4963823;28;20501;-50
2022/11/24 06:22:27;;;;;;;41.80;26.33;;;1.70;99.90;;;;;;4968668;28;20513;-50
2022/11/24 06:24:53;;;;;;;42.50;27.17;;;1.80;99.90;;;;;;4962737;28;20462;-51
2022/11/24 06:27:21;;;;;;;40.67;27.20;;;1.80;99.90;;;;;;4967259;28;20904;-50
2022/11/24 06:29:48;;;;;;;39.70;27.97;;;1.80;99.90;;;;;;4968440;28;20465;-50
2022/11/24 06:32:15;;;;;;;46.73;27.60;;;1.70;99.90;;;;;;4966752;28;20481;-51
2022/11/24 06:34:42;;;;;;;42.17;27.17;;;1.70;99.90;;;;;;4971639;28;20560;-49
2022/11/24 06:37:09;;;;;;;53.70;28.20;;;1.80;99.90;;;;;;4966430;28;20603;-50
2022/11/24 06:39:36;;;;;;;36.63;25.23;;;1.70;99.90;;;;;;4964326;28;20461;-51
2022/11/24 06:42:03;;;;;;;44.80;25.80;;;1.80;99.90;;;;;;4966766;28;20497;-50
2022/11/24 06:44:31;;;;;;;44.30;28.13;;;1.80;99.90;;;;;;4964878;28;20501;-50
2022/11/24 06:46:57;;;;;;;41.07;26.10;;;1.70;99.90;;;;;;4961711;28;20919;-50
2022/11/24 06:49:24;;;;;;;50.03;27.67;;;1.70;99.90;;;;;;4963682;28;20549;-50
2022/11/24 06:51:50;;;;;;;44.83;25.87;;;1.80;99.90;;;;;;4969445;28;20927;-50
2022/11/24 06:54:19;;;;;;;38.63;26.37;;;1.80;99.90;;;;;;4968761;28;20493;-50
2022/11/24 06:56:46;;;;;;;43.90;26.00;;;1.90;99.90;;;;;;4957577;28;20494;-50
2022/11/24 06:59:17;;;;;;;53.03;26.63;;;1.90;99.90;;;;;;4965345;28;20497;-50
2022/11/24 07:01:45;;;;;;;43.50;26.37;;;1.90;99.90;;;;;;4964283;28;20481;-50
2022/11/24 07:04:12;;;;;;;61.07;27.23;;;1.80;99.90;;;;;;4971790;28;20465;-50
2022/11/24 07:06:40;;;;;;;41.00;25.87;;;1.80;99.90;;;;;;4968886;28;20879;-51
2022/11/24 07:09:08;;;;;;;40.10;26.27;;;1.90;99.90;;;;;;4969426;28;20469;-50
2022/11/24 07:11:34;;;;;;;38.93;25.87;;;1.70;99.90;;;;;;4962844;28;20570;-49
2022/11/24 07:14:01;;;;;;;40.33;26.90;;;1.70;99.90;;;;;;4964433;28;20866;-50
2022/11/24 07:16:28;;;;;;;43.43;26.70;;;1.80;99.90;;;;;;4966564;28;20902;-50
2022/11/24 07:18:57;;;;;;;38.53;26.47;;;1.80;99.90;;;;;;4969419;28;20489;-51
2022/11/24 07:21:25;;;;;;;38.03;25.83;;;1.80;99.90;;;;;;4959479;28;20591;-50
2022/11/24 07:23:53;;;;;;;46.67;33.07;;;1.90;99.90;;;;;;4962969;28;21059;-50
2022/11/24 07:26:20;;;;;;;53.20;32.60;;;1.90;99.90;;;;;;4965682;28;20522;-50
2022/11/24 07:28:47;;;;;;;46.20;27.00;;;1.90;99.90;;;;;;4960352;28;20493;-50
2022/11/24 07:31:17;;;;;;;52.93;33.30;;;1.90;99.90;;;;;;4967880;28;20564;-50
2022/11/24 07:33:47;;;;;;;43.50;28.80;;;1.90;99.90;;;;;;4971901;28;20552;-49
2022/11/24 07:36:15;;;;;;;52.83;30.33;;;1.90;99.90;;;;;;4971158;28;20521;-50
2022/11/24 07:38:41;;;;;;;44.87;29.33;;;1.80;99.90;;;;;;4967757;28;20528;-50
2022/11/24 07:41:10;;;;;;;43.40;25.63;;;1.80;99.90;;;;;;4968381;28;20567;-50
2022/11/24 07:43:37;;;;;;;48.17;26.80;;;1.90;99.90;;;;;;4967758;28;20563;-50
2022/11/24 07:46:05;;;;;;;44.60;26.60;;;1.80;99.90;;;;;;4970859;28;20523;-50
2022/11/24 07:48:31;;;;;;;40.30;25.77;;;1.80;99.90;;;;;;4970180;28;20501;-50
2022/11/24 07:50:59;;;;;;;36.93;24.83;;;1.80;99.90;;;;;;4970189;28;20969;-50
2022/11/24 07:53:27;;;;;;;38.23;25.47;;;1.90;99.90;;;;;;4971438;28;20465;-51
2022/11/24 07:55:54;;;;;;;46.50;28.40;;;1.80;99.90;;;;;;4971119;28;20544;-50
2022/11/24 07:58:21;;;;;;;38.20;25.50;;;1.90;99.90;;;;;;4969197;28;20469;-50
2022/11/24 08:00:48;;;;;;;38.17;24.77;;;1.90;99.90;;;;;;4966527;28;20573;-50
2022/11/24 08:03:14;;;;;;;39.50;26.57;;;1.90;99.90;;;;;;4963499;28;20552;-50
2022/11/24 08:05:41;;;;;;;36.47;24.97;;;1.90;99.90;;;;;;4969892;28;20888;-50
2022/11/24 08:08:07;;;;;;;39.20;27.03;;;1.90;99.90;;;;;;4971101;28;20504;-51
2022/11/24 08:10:35;;;;;;;36.33;25.87;;;1.90;99.90;;;;;;4971508;28;20493;-50
2022/11/24 08:13:02;;;;;;;39.00;25.80;;;2.00;99.90;;;;;;4972719;28;20493;-51
2022/11/24 08:15:28;;;;;;;37.40;24.67;;;1.90;99.90;;;;;;4973368;28;20494;-50
2022/11/24 08:17:55;;;;;;;43.33;26.07;;;1.90;99.90;;;;;;4967404;28;20517;-51
2022/11/24 08:20:21;;;;;;;38.40;25.10;;;2.00;99.90;;;;;;4972061;28;20835;-51
2022/11/24 08:22:48;;;;;;;40.23;26.43;;;1.90;99.90;;;;;;4954589;28;20593;-51
2022/11/24 08:25:16;;;;;;;37.93;24.80;;;2.00;99.90;;;;;;4965346;28;21239;-51
2022/11/24 08:27:44;;;;;;;33.60;22.83;;;2.00;99.90;;;;;;4969262;28;21151;-51
2022/11/24 08:30:12;;;;;;;32.63;23.03;;;2.10;99.90;;;;;;4964507;28;20563;-50
2022/11/24 08:32:38;;;;;;;36.10;25.20;;;2.00;99.90;;;;;;4967071;28;20588;-50
2022/11/24 08:35:06;;;;;;;39.87;25.77;;;2.10;99.90;;;;;;4967589;28;21168;-50
2022/11/24 08:37:32;;;;;;;41.93;27.43;;;2.10;99.90;;;;;;4968145;28;20521;-50
2022/11/24 08:39:59;;;;;;;41.63;27.03;;;2.10;99.90;;;;;;4967297;28;20502;-50
2022/11/24 08:42:25;;;;;;;40.07;27.83;;;2.20;99.90;;;;;;4965353;28;20572;-50
2022/11/24 08:44:53;;;;;;;40.07;26.23;;;2.20;99.90;;;;;;4970522;28;20515;-51
2022/11/24 08:47:20;;;;;;;41.10;27.57;;;2.20;99.90;;;;;;4971025;28;20485;-51
2022/11/24 08:49:47;;;;;;;40.00;27.43;;;2.20;99.90;;;;;;4964938;28;20485;-50
2022/11/24 08:52:13;;;;;;;69.97;38.20;;;2.20;99.90;;;;;;4963999;28;20518;-50
2022/11/24 08:54:43;;;;;;;59.20;31.90;;;2.30;99.90;;;;;;4967293;23;20599;-53
2022/11/24 08:57:09;;;;;;;137.87;51.20;;;2.40;99.90;;;;;;4955238;28;20568;-54
2022/11/24 08:59:36;;;;;;;104.70;40.37;;;2.50;99.90;;;;;;4962042;28;20465;-53
2022/11/24 09:02:04;;;;;;;95.50;43.03;;;2.50;99.90;;;;;;4959744;28;20876;-54
2022/11/24 09:04:31;;;;;;;60.47;31.20;;;2.50;99.90;;;;;;4978898;28;20617;-53
2022/11/24 09:06:58;;;;;;;48.53;28.00;;;2.50;99.90;;;;;;4981613;28;20500;-53
2022/11/24 09:09:24;;;;;;;43.80;28.33;;;2.60;99.90;;;;;;4987855;28;21026;-53
2022/11/24 09:11:51;;;;;;;38.33;27.00;;;2.60;99.90;;;;;;4979511;28;20551;-53
2022/11/24 09:14:17;;;;;;;46.20;27.67;;;2.60;99.90;;;;;;4984201;28;20516;-53
2022/11/24 09:16:44;;;;;;;50.73;30.40;;;2.70;99.90;;;;;;4983726;28;20598;-54
2022/11/24 09:19:12;;;;;;;44.83;27.97;;;2.70;99.90;;;;;;4989384;28;20493;-54
2022/11/24 09:21:38;;;;;;;45.03;27.27;;;2.80;99.90;;;;;;4988428;28;21033;-54
2022/11/24 09:24:06;;;;;;;53.73;32.17;;;2.80;99.90;;;;;;4987379;28;20485;-54
2022/11/24 09:26:35;;;;;;;53.70;30.47;;;2.80;99.90;;;;;;4984442;28;21038;-53
2022/11/24 09:29:03;;;;;;;64.57;33.70;;;2.80;99.90;;;;;;4980282;28;20473;-54
2022/11/24 09:31:33;;;;;;;70.60;35.40;;;2.80;99.90;;;;;;4977370;28;20464;-53
2022/11/24 09:34:00;;;;;;;76.43;35.70;;;2.90;99.90;;;;;;4982584;28;20557;-53
2022/11/24 09:36:30;;;;;;;46.50;29.33;;;3.00;99.90;;;;;;4973741;28;20572;-53
2022/11/24 09:38:56;;;;;;;51.67;29.90;;;3.00;99.90;;;;;;4987151;28;20806;-53
2022/11/24 09:41:54;;;;;;;56.83;32.53;;;3.00;99.90;;;;;;4987516;28;20861;-54
2022/11/24 09:44:46;;;;;;;48.90;30.97;;;3.00;99.90;;;;;;4977723;28;20849;-52
2022/11/24 09:47:20;;;;;;;48.40;31.00;;;3.00;99.90;;;;;;4979782;28;20469;-54
2022/11/24 09:49:52;;;;;;;51.70;32.47;;;3.00;99.90;;;;;;4983533;28;20947;-53
2022/11/24 09:52:26;;;;;;;58.47;32.50;;;3.00;99.90;;;;;;4988831;28;20495;-53
2022/11/24 09:54:58;;;;;;;47.40;31.53;;;3.10;99.90;;;;;;4977857;28;20583;-53
2022/11/24 09:57:27;;;;;;;55.60;32.20;;;3.10;99.90;;;;;;4982513;28;20583;-54
2022/11/24 09:59:59;;;;;;;48.77;31.73;;;3.20;99.90;;;;;;4975325;28;20542;-54
2022/11/24 10:02:27;;;;;;;56.90;32.63;;;3.20;99.90;;;;;;4982186;28;20500;-54
2022/11/24 10:04:55;;;;;;;52.27;32.70;;;3.20;99.90;;;;;;4985040;28;20512;-54
2022/11/24 10:07:30;;;;;;;57.73;34.13;;;3.20;99.90;;;;;;4981230;28;20461;-54
2022/11/24 10:10:03;;;;;;;64.60;35.07;;;3.40;99.90;;;;;;4986472;28;20491;-53
2022/11/24 10:12:49;;;;;;;84.90;40.70;;;3.40;99.90;;;;;;4978773;28;21006;-54
2022/11/24 10:15:24;;;;;;;54.60;35.13;;;3.40;99.90;;;;;;4985131;28;20512;-53
2022/11/24 10:18:17;;;;;;;96.23;43.60;;;3.40;99.90;;;;;;4978357;28;20491;-53
2022/11/24 10:20:54;;;;;;;80.33;41.77;;;3.50;99.90;;;;;;4989583;28;20559;-53
2022/11/24 10:23:46;;;;;;;57.63;35.27;;;3.60;99.90;;;;;;4983405;28;20464;-53
2022/11/24 10:26:18;;;;;;;86.50;41.47;;;3.70;99.90;;;;;;4979077;28;20532;-53
2022/11/24 10:28:52;;;;;;;71.53;37.93;;;3.70;99.90;;;;;;4985191;28;20544;-53
2022/11/24 10:31:24;;;;;;;56.83;35.63;;;3.70;99.90;;;;;;4976657;28;21119;-54
2022/11/24 10:33:50;;;;;;;72.03;37.47;;;3.80;99.90;;;;;;4981818;28;20504;-54
2022/11/24 10:36:21;;;;;;;60.40;34.73;;;3.80;99.90;;;;;;4986260;28;20598;-52
2022/11/24 10:38:56;;;;;;;82.60;43.17;;;3.80;99.90;;;;;;4982378;28;20963;-54
2022/11/24 10:41:27;;;;;;;85.40;42.37;;;3.90;99.90;;;;;;4990266;28;20550;-54
2022/11/24 10:43:57;;;;;;;66.27;38.83;;;4.00;99.90;;;;;;4984173;28;20484;-53
2022/11/24 10:46:28;;;;;;;59.17;38.20;;;4.10;99.90;;;;;;4987301;28;20488;-54
2022/11/24 10:48:59;;;;;;;65.53;37.90;;;4.00;99.90;;;;;;4990068;28;20492;-54
2022/11/24 10:51:41;;;;;;;56.50;35.20;;;4.10;99.90;;;;;;4984934;28;20572;-53
2022/11/24 10:54:16;;;;;;;55.97;35.80;;;4.20;99.90;;;;;;4971990;28;21509;-53
2022/11/24 10:56:44;;;;;;;57.37;34.40;;;4.10;99.90;;;;;;4984290;28;20551;-54
2022/11/24 10:59:39;;;;;;;58.53;35.60;;;4.30;99.90;;;;;;4980734;28;20527;-53
2022/11/24 11:02:28;;;;;;;57.90;37.00;;;4.30;99.90;;;;;;4945241;28;20548;-53
2022/11/24 11:04:55;;;;;;;57.17;35.13;;;4.40;99.90;;;;;;4988318;28;20539;-53
2022/11/24 11:07:24;;;;;;;75.93;41.07;;;4.10;99.90;;;;;;4984952;28;20497;-53
2022/11/24 11:10:19;;;;;;;55.70;35.57;;;4.30;99.90;;;;;;4988820;28;20487;-53
2022/11/24 11:12:45;;;;;;;64.77;39.53;;;4.30;99.90;;;;;;4983919;28;20457;-54
2022/11/24 11:15:26;;;;;;;63.67;38.70;;;4.30;99.90;;;;;;4990176;28;20515;-53
2022/11/24 11:17:57;;;;;;;63.20;36.20;;;4.30;99.90;;;;;;4989964;28;20539;-54
2022/11/24 11:20:29;;;;;;;58.13;34.60;;;4.00;99.90;;;;;;4977218;28;20469;-53
2022/11/24 11:22:57;;;;;;;63.57;36.80;;;4.10;99.90;;;;;;4989096;28;20576;-53
2022/11/24 11:25:30;;;;;;;54.60;37.03;;;4.10;99.90;;;;;;4981430;28;20904;-53
2022/11/24 11:28:26;;;;;;;64.70;38.13;;;4.10;99.90;;;;;;4987219;28;20551;-53
2022/11/24 11:30:59;;;;;;;66.13;42.70;;;4.10;99.90;;;;;;4979129;28;20519;-53
2022/11/24 11:33:28;;;;;;;69.43;41.40;;;4.20;99.90;;;;;;4990525;28;20965;-53
2022/11/24 11:35:56;;;;;;;63.10;37.23;;;4.30;99.90;;;;;;4987404;28;20989;-53
2022/11/24 11:38:23;;;;;;;61.00;39.80;;;4.40;99.90;;;;;;4981563;28;20614;-53
2022/11/24 11:40:52;;;;;;;59.07;37.20;;;4.40;99.90;;;;;;4989028;28;20500;-53
2022/11/24 11:43:24;;;;;;;57.33;36.47;;;4.40;99.90;;;;;;4993018;28;20515;-53
2022/11/24 11:46:00;;;;;;;55.03;36.13;;;4.50;99.90;;;;;;4985358;28;20524;-53
2022/11/24 11:48:30;;;;;;;65.30;40.30;;;4.50;99.90;;;;;;4988112;28;20487;-54
2022/11/24 11:51:02;;;;;;;59.07;36.77;;;4.60;99.90;;;;;;4981536;28;20497;-54
2022/11/24 11:53:43;;;;;;;61.50;37.00;;;4.60;99.90;;;;;;4987696;28;20551;-54
2022/11/24 11:56:21;;;;;;;61.87;40.20;;;4.70;99.90;;;;;;4996792;28;20472;-53
2022/11/24 11:59:18;;;;;;;56.70;35.90;;;4.70;99.90;;;;;;4986265;28;21080;-53
2022/11/24 12:02:13;;;;;;;57.43;37.50;;;4.70;99.90;;;;;;4991644;28;20501;-53
2022/11/24 12:04:45;;;;;;;56.20;37.03;;;4.50;1.40;;;;;;4991924;28;20516;-52
2022/11/24 12:07:31;;;;;;;60.10;38.20;;;4.60;99.90;;;;;;4991870;28;20488;-53
2022/11/24 12:10:06;;;;;;;57.87;37.80;;;4.70;99.90;;;;;;4987725;28;20492;-54
2022/11/24 12:13:03;;;;;;;57.10;35.27;;;4.70;99.90;;;;;;4992467;28;20499;-54
2022/11/24 12:15:40;;;;;;;56.10;35.77;;;4.70;99.90;;;;;;4993471;28;20484;-53
2022/11/24 12:18:16;;;;;;;54.17;36.47;;;4.80;99.90;;;;;;4991219;28;20498;-50
2022/11/24 12:20:59;;;;;;;56.00;36.47;;;4.70;99.90;;;;;;4988865;28;20623;-51
2022/11/24 12:23:37;;;;;;;61.43;36.70;;;4.70;99.90;;;;;;4993035;28;20472;-50
2022/11/24 12:26:09;;;;;;;58.17;35.40;;;4.70;99.90;;;;;;4990671;28;20464;-51
2022/11/24 12:28:46;;;;;;;56.73;36.50;;;4.70;99.90;;;;;;4989139;28;20485;-50
2022/11/24 12:31:21;;;;;;;52.47;35.70;;;4.80;99.90;;;;;;4996642;28;20500;-50
2022/11/24 12:34:20;;;;;;;57.03;37.60;;;4.80;99.90;;;;;;4994591;28;21029;-50
2022/11/24 12:37:00;;;;;;;54.53;36.80;;;4.70;1.40;;;;;;4983794;28;20464;-50
2022/11/24 12:39:32;;;;;;;51.53;35.97;;;4.80;99.90;;;;;;4994665;28;20891;-50
2022/11/24 12:42:08;;;;;;;65.97;38.53;;;4.80;99.90;;;;;;4992484;28;20469;-50
2022/11/24 12:45:11;;;;;;;53.90;35.63;;;4.80;99.90;;;;;;4995008;28;20484;-50
2022/11/24 12:47:55;;;;;;;57.53;37.40;;;4.80;99.90;;;;;;4982433;28;20955;-51
2022/11/24 12:50:25;;;;;;;57.73;38.30;;;4.90;99.90;;;;;;4988657;28;20500;-51
2022/11/24 12:52:59;;;;;;;54.47;35.43;;;4.90;99.90;;;;;;4985029;28;20998;-52
2022/11/24 12:55:27;;;;;;;59.17;38.17;;;5.00;99.90;;;;;;4994587;28;20538;-51